sensor_id;sensor_type;location;lat;lon;timestamp;P1;durP1;ratioP1;P2;durP2;ratioP2
32705;SDS011;19094;50.972;3.538;2023-03-14T00:00:34;7.60;;;1.27;;
32705;SDS011;19094;50.972;3.538;2023-03-14T00:03:00;5.57;;;1.30;;
32705;SDS011;19094;50.972;3.538;2023-03-14T00:05:25;8.55;;;1.67;;
32705;SDS011;19094;50.972;3.538;2023-03-14T00:07:51;11.75;;;1.42;;
32705;SDS011;19094;50.972;3.538;2023-03-14T00:10:17;6.47;;;1.83;;
32705;SDS011;19094;50.972;3.538;2023-03-14T00:12:43;9.50;;;1.58;;
32705;SDS011;19094;50.972;3.538;2023-03-14T00:15:09;10.80;;;1.95;;
32705;SDS011;19094;50.972;3.538;2023-03-14T00:17:35;5.93;;;0.80;;
32705;SDS011;19094;50.972;3.538;2023-03-14T00:20:02;9.10;;;1.55;;
32705;SDS011;19094;50.972;3.538;2023-03-14T00:22:33;9.07;;;1.50;;
32705;SDS011;19094;50.972;3.538;2023-03-14T00:24:59;10.60;;;1.80;;
32705;SDS011;19094;50.972;3.538;2023-03-14T00:27:25;12.43;;;1.95;;
32705;SDS011;19094;50.972;3.538;2023-03-14T00:29:51;12.95;;;2.67;;
32705;SDS011;19094;50.972;3.538;2023-03-14T00:32:17;12.68;;;1.77;;
32705;SDS011;19094;50.972;3.538;2023-03-14T00:34:43;12.35;;;2.30;;
32705;SDS011;19094;50.972;3.538;2023-03-14T00:37:08;10.82;;;2.30;;
32705;SDS011;19094;50.972;3.538;2023-03-14T00:39:34;9.02;;;1.52;;
32705;SDS011;19094;50.972;3.538;2023-03-14T00:42:00;12.35;;;2.10;;
32705;SDS011;19094;50.972;3.538;2023-03-14T00:44:25;12.55;;;1.88;;
32705;SDS011;19094;50.972;3.538;2023-03-14T00:46:51;9.45;;;1.95;;
32705;SDS011;19094;50.972;3.538;2023-03-14T00:49:17;12.73;;;1.95;;
32705;SDS011;19094;50.972;3.538;2023-03-14T00:51:43;15.75;;;3.17;;
32705;SDS011;19094;50.972;3.538;2023-03-14T00:54:09;11.80;;;2.63;;
32705;SDS011;19094;50.972;3.538;2023-03-14T00:56:34;8.60;;;2.25;;
32705;SDS011;19094;50.972;3.538;2023-03-14T00:59:00;13.43;;;2.72;;
32705;SDS011;19094;50.972;3.538;2023-03-14T01:01:26;14.65;;;2.67;;
32705;SDS011;19094;50.972;3.538;2023-03-14T01:03:52;14.85;;;2.30;;
32705;SDS011;19094;50.972;3.538;2023-03-14T01:06:20;8.55;;;1.92;;
32705;SDS011;19094;50.972;3.538;2023-03-14T01:08:48;15.07;;;3.25;;
32705;SDS011;19094;50.972;3.538;2023-03-14T01:11:19;15.20;;;2.83;;
32705;SDS011;19094;50.972;3.538;2023-03-14T01:13:55;11.13;;;2.72;;
32705;SDS011;19094;50.972;3.538;2023-03-14T01:16:22;8.70;;;2.13;;
32705;SDS011;19094;50.972;3.538;2023-03-14T01:18:49;14.95;;;2.70;;
32705;SDS011;19094;50.972;3.538;2023-03-14T01:21:26;11.02;;;2.20;;
32705;SDS011;19094;50.972;3.538;2023-03-14T01:23:54;12.73;;;1.92;;
32705;SDS011;19094;50.972;3.538;2023-03-14T01:26:21;11.32;;;2.20;;
32705;SDS011;19094;50.972;3.538;2023-03-14T01:28:50;11.27;;;2.33;;
32705;SDS011;19094;50.972;3.538;2023-03-14T01:31:17;9.15;;;1.98;;
32705;SDS011;19094;50.972;3.538;2023-03-14T01:33:45;9.07;;;1.95;;
32705;SDS011;19094;50.972;3.538;2023-03-14T01:36:11;12.65;;;2.40;;
32705;SDS011;19094;50.972;3.538;2023-03-14T01:38:38;11.13;;;2.30;;
32705;SDS011;19094;50.972;3.538;2023-03-14T01:41:05;9.02;;;2.35;;
32705;SDS011;19094;50.972;3.538;2023-03-14T01:43:32;8.23;;;1.83;;
32705;SDS011;19094;50.972;3.538;2023-03-14T01:48:35;9.95;;;2.05;;
32705;SDS011;19094;50.972;3.538;2023-03-14T01:51:04;14.60;;;2.25;;
32705;SDS011;19094;50.972;3.538;2023-03-14T01:53:34;10.60;;;2.22;;
32705;SDS011;19094;50.972;3.538;2023-03-14T01:56:01;7.15;;;2.03;;
32705;SDS011;19094;50.972;3.538;2023-03-14T01:58:28;8.25;;;1.38;;
32705;SDS011;19094;50.972;3.538;2023-03-14T02:00:59;8.65;;;1.83;;
32705;SDS011;19094;50.972;3.538;2023-03-14T02:03:26;7.50;;;2.05;;
32705;SDS011;19094;50.972;3.538;2023-03-14T02:05:55;5.00;;;1.40;;
32705;SDS011;19094;50.972;3.538;2023-03-14T02:08:25;10.93;;;1.75;;
32705;SDS011;19094;50.972;3.538;2023-03-14T02:10:52;8.60;;;1.77;;
32705;SDS011;19094;50.972;3.538;2023-03-14T02:13:18;14.75;;;1.73;;
32705;SDS011;19094;50.972;3.538;2023-03-14T02:15:46;4.60;;;1.42;;
32705;SDS011;19094;50.972;3.538;2023-03-14T02:18:12;6.85;;;1.25;;
32705;SDS011;19094;50.972;3.538;2023-03-14T02:21:00;4.25;;;1.13;;
32705;SDS011;19094;50.972;3.538;2023-03-14T02:27:00;11.20;;;1.75;;
32705;SDS011;19094;50.972;3.538;2023-03-14T02:29:33;3.20;;;1.00;;
32705;SDS011;19094;50.972;3.538;2023-03-14T02:32:01;2.15;;;0.90;;
32705;SDS011;19094;50.972;3.538;2023-03-14T02:34:27;6.13;;;1.33;;
32705;SDS011;19094;50.972;3.538;2023-03-14T02:36:53;6.55;;;1.17;;
32705;SDS011;19094;50.972;3.538;2023-03-14T02:39:29;4.70;;;1.00;;
32705;SDS011;19094;50.972;3.538;2023-03-14T02:42:03;6.03;;;1.05;;
32705;SDS011;19094;50.972;3.538;2023-03-14T02:44:28;7.03;;;1.02;;
32705;SDS011;19094;50.972;3.538;2023-03-14T02:46:54;6.45;;;1.38;;
32705;SDS011;19094;50.972;3.538;2023-03-14T02:49:20;5.20;;;1.30;;
32705;SDS011;19094;50.972;3.538;2023-03-14T02:51:46;13.07;;;1.50;;
32705;SDS011;19094;50.972;3.538;2023-03-14T02:54:13;3.80;;;0.80;;
32705;SDS011;19094;50.972;3.538;2023-03-14T02:56:40;10.85;;;1.30;;
32705;SDS011;19094;50.972;3.538;2023-03-14T02:59:06;8.15;;;0.80;;
32705;SDS011;19094;50.972;3.538;2023-03-14T03:01:32;8.30;;;1.27;;
32705;SDS011;19094;50.972;3.538;2023-03-14T03:03:59;7.45;;;1.20;;
32705;SDS011;19094;50.972;3.538;2023-03-14T03:06:25;6.95;;;0.90;;
32705;SDS011;19094;50.972;3.538;2023-03-14T03:08:50;6.45;;;1.00;;
32705;SDS011;19094;50.972;3.538;2023-03-14T03:11:17;5.25;;;1.38;;
32705;SDS011;19094;50.972;3.538;2023-03-14T03:13:42;7.03;;;1.20;;
32705;SDS011;19094;50.972;3.538;2023-03-14T03:16:08;5.13;;;1.20;;
32705;SDS011;19094;50.972;3.538;2023-03-14T03:18:34;6.10;;;1.33;;
32705;SDS011;19094;50.972;3.538;2023-03-14T03:21:03;7.28;;;1.67;;
32705;SDS011;19094;50.972;3.538;2023-03-14T03:23:30;6.65;;;1.70;;
32705;SDS011;19094;50.972;3.538;2023-03-14T03:25:55;5.88;;;1.52;;
32705;SDS011;19094;50.972;3.538;2023-03-14T03:28:21;7.18;;;2.00;;
32705;SDS011;19094;50.972;3.538;2023-03-14T03:30:47;9.35;;;2.28;;
32705;SDS011;19094;50.972;3.538;2023-03-14T03:33:12;9.38;;;1.83;;
32705;SDS011;19094;50.972;3.538;2023-03-14T03:35:46;10.93;;;2.25;;
32705;SDS011;19094;50.972;3.538;2023-03-14T03:38:13;5.82;;;1.95;;
32705;SDS011;19094;50.972;3.538;2023-03-14T03:40:39;9.93;;;2.05;;
32705;SDS011;19094;50.972;3.538;2023-03-14T03:43:05;7.47;;;2.00;;
32705;SDS011;19094;50.972;3.538;2023-03-14T03:45:31;6.80;;;2.00;;
32705;SDS011;19094;50.972;3.538;2023-03-14T03:47:57;10.52;;;1.80;;
32705;SDS011;19094;50.972;3.538;2023-03-14T03:50:23;9.10;;;2.00;;
32705;SDS011;19094;50.972;3.538;2023-03-14T03:52:48;11.27;;;2.55;;
32705;SDS011;19094;50.972;3.538;2023-03-14T03:55:14;8.90;;;2.33;;
32705;SDS011;19094;50.972;3.538;2023-03-14T03:57:40;12.15;;;2.60;;
32705;SDS011;19094;50.972;3.538;2023-03-14T04:00:05;7.95;;;2.08;;
32705;SDS011;19094;50.972;3.538;2023-03-14T04:02:34;12.57;;;2.78;;
32705;SDS011;19094;50.972;3.538;2023-03-14T04:04:59;7.25;;;2.35;;
32705;SDS011;19094;50.972;3.538;2023-03-14T04:07:25;11.30;;;2.65;;
32705;SDS011;19094;50.972;3.538;2023-03-14T04:09:51;7.68;;;2.28;;
32705;SDS011;19094;50.972;3.538;2023-03-14T04:12:16;9.70;;;2.38;;
32705;SDS011;19094;50.972;3.538;2023-03-14T04:14:42;8.05;;;2.83;;
32705;SDS011;19094;50.972;3.538;2023-03-14T04:17:08;6.97;;;2.15;;
32705;SDS011;19094;50.972;3.538;2023-03-14T04:19:33;6.28;;;2.20;;
32705;SDS011;19094;50.972;3.538;2023-03-14T04:21:59;6.72;;;2.35;;
32705;SDS011;19094;50.972;3.538;2023-03-14T04:24:25;6.32;;;2.28;;
32705;SDS011;19094;50.972;3.538;2023-03-14T04:26:50;4.70;;;1.73;;
32705;SDS011;19094;50.972;3.538;2023-03-14T04:29:16;4.38;;;2.00;;
32705;SDS011;19094;50.972;3.538;2023-03-14T04:31:42;7.82;;;1.92;;
32705;SDS011;19094;50.972;3.538;2023-03-14T04:34:07;3.38;;;1.27;;
32705;SDS011;19094;50.972;3.538;2023-03-14T04:36:33;2.88;;;1.45;;
32705;SDS011;19094;50.972;3.538;2023-03-14T04:38:59;2.58;;;1.00;;
32705;SDS011;19094;50.972;3.538;2023-03-14T04:41:24;4.72;;;1.10;;
32705;SDS011;19094;50.972;3.538;2023-03-14T04:43:50;3.75;;;0.80;;
32705;SDS011;19094;50.972;3.538;2023-03-14T04:46:16;2.50;;;0.73;;
32705;SDS011;19094;50.972;3.538;2023-03-14T04:48:41;0.93;;;0.55;;
32705;SDS011;19094;50.972;3.538;2023-03-14T04:51:07;4.38;;;0.90;;
32705;SDS011;19094;50.972;3.538;2023-03-14T04:53:33;2.00;;;0.63;;
32705;SDS011;19094;50.972;3.538;2023-03-14T04:56:00;5.78;;;1.30;;
32705;SDS011;19094;50.972;3.538;2023-03-14T04:58:26;1.80;;;0.70;;
32705;SDS011;19094;50.972;3.538;2023-03-14T05:00:52;2.97;;;0.90;;
32705;SDS011;19094;50.972;3.538;2023-03-14T05:03:18;2.67;;;0.90;;
32705;SDS011;19094;50.972;3.538;2023-03-14T05:05:44;4.10;;;1.00;;
32705;SDS011;19094;50.972;3.538;2023-03-14T05:08:10;5.93;;;1.27;;
32705;SDS011;19094;50.972;3.538;2023-03-14T05:10:36;5.10;;;1.30;;
32705;SDS011;19094;50.972;3.538;2023-03-14T05:13:02;3.25;;;1.20;;
32705;SDS011;19094;50.972;3.538;2023-03-14T05:15:28;5.45;;;1.42;;
32705;SDS011;19094;50.972;3.538;2023-03-14T05:17:53;4.90;;;1.50;;
32705;SDS011;19094;50.972;3.538;2023-03-14T05:20:19;7.18;;;1.42;;
32705;SDS011;19094;50.972;3.538;2023-03-14T05:22:45;8.60;;;1.80;;
32705;SDS011;19094;50.972;3.538;2023-03-14T05:25:12;4.63;;;1.38;;
32705;SDS011;19094;50.972;3.538;2023-03-14T05:27:37;6.10;;;1.30;;
32705;SDS011;19094;50.972;3.538;2023-03-14T05:30:04;6.47;;;1.40;;
32705;SDS011;19094;50.972;3.538;2023-03-14T05:32:30;5.65;;;1.60;;
32705;SDS011;19094;50.972;3.538;2023-03-14T05:34:56;4.47;;;1.83;;
32705;SDS011;19094;50.972;3.538;2023-03-14T05:37:24;4.53;;;1.33;;
32705;SDS011;19094;50.972;3.538;2023-03-14T05:39:51;12.10;;;2.45;;
32705;SDS011;19094;50.972;3.538;2023-03-14T05:42:16;8.23;;;2.40;;
32705;SDS011;19094;50.972;3.538;2023-03-14T05:44:42;10.02;;;2.10;;
32705;SDS011;19094;50.972;3.538;2023-03-14T05:47:08;9.10;;;2.42;;
32705;SDS011;19094;50.972;3.538;2023-03-14T05:49:33;9.18;;;2.55;;
32705;SDS011;19094;50.972;3.538;2023-03-14T05:51:59;9.07;;;3.28;;
32705;SDS011;19094;50.972;3.538;2023-03-14T05:54:25;13.05;;;2.97;;
32705;SDS011;19094;50.972;3.538;2023-03-14T05:56:50;6.57;;;2.03;;
32705;SDS011;19094;50.972;3.538;2023-03-14T05:59:16;3.22;;;1.85;;
32705;SDS011;19094;50.972;3.538;2023-03-14T06:01:42;2.75;;;0.70;;
32705;SDS011;19094;50.972;3.538;2023-03-14T06:04:07;7.35;;;1.85;;
32705;SDS011;19094;50.972;3.538;2023-03-14T06:06:33;5.68;;;1.17;;
32705;SDS011;19094;50.972;3.538;2023-03-14T06:08:59;1.90;;;0.70;;
32705;SDS011;19094;50.972;3.538;2023-03-14T06:11:24;5.68;;;1.35;;
32705;SDS011;19094;50.972;3.538;2023-03-14T06:13:50;2.47;;;1.02;;
32705;SDS011;19094;50.972;3.538;2023-03-14T06:16:16;7.85;;;1.63;;
32705;SDS011;19094;50.972;3.538;2023-03-14T06:18:42;6.95;;;1.52;;
32705;SDS011;19094;50.972;3.538;2023-03-14T06:21:07;6.82;;;1.75;;
32705;SDS011;19094;50.972;3.538;2023-03-14T06:23:33;8.50;;;1.65;;
32705;SDS011;19094;50.972;3.538;2023-03-14T06:25:59;12.65;;;2.05;;
32705;SDS011;19094;50.972;3.538;2023-03-14T06:28:24;5.18;;;1.73;;
32705;SDS011;19094;50.972;3.538;2023-03-14T06:30:50;6.43;;;2.00;;
32705;SDS011;19094;50.972;3.538;2023-03-14T06:33:16;8.30;;;2.38;;
32705;SDS011;19094;50.972;3.538;2023-03-14T06:35:41;10.05;;;2.40;;
32705;SDS011;19094;50.972;3.538;2023-03-14T06:38:07;8.80;;;2.33;;
32705;SDS011;19094;50.972;3.538;2023-03-14T06:40:33;9.07;;;2.80;;
32705;SDS011;19094;50.972;3.538;2023-03-14T06:42:58;8.95;;;2.55;;
32705;SDS011;19094;50.972;3.538;2023-03-14T06:45:24;9.02;;;3.10;;
32705;SDS011;19094;50.972;3.538;2023-03-14T06:47:50;11.15;;;3.28;;
32705;SDS011;19094;50.972;3.538;2023-03-14T06:50:16;7.90;;;3.88;;
32705;SDS011;19094;50.972;3.538;2023-03-14T06:52:41;12.35;;;3.58;;
32705;SDS011;19094;50.972;3.538;2023-03-14T06:55:12;13.20;;;3.63;;
32705;SDS011;19094;50.972;3.538;2023-03-14T06:57:39;6.28;;;3.08;;
32705;SDS011;19094;50.972;3.538;2023-03-14T07:00:05;13.55;;;3.00;;
32705;SDS011;19094;50.972;3.538;2023-03-14T07:02:31;6.53;;;2.25;;
32705;SDS011;19094;50.972;3.538;2023-03-14T07:04:57;4.68;;;2.20;;
32705;SDS011;19094;50.972;3.538;2023-03-14T07:07:22;10.68;;;2.78;;
32705;SDS011;19094;50.972;3.538;2023-03-14T07:09:48;7.72;;;2.17;;
32705;SDS011;19094;50.972;3.538;2023-03-14T07:12:14;18.27;;;3.95;;
32705;SDS011;19094;50.972;3.538;2023-03-14T07:14:39;11.15;;;2.80;;
32705;SDS011;19094;50.972;3.538;2023-03-14T07:17:05;12.82;;;2.40;;
32705;SDS011;19094;50.972;3.538;2023-03-14T07:19:31;12.23;;;3.20;;
32705;SDS011;19094;50.972;3.538;2023-03-14T07:21:56;10.05;;;2.67;;
32705;SDS011;19094;50.972;3.538;2023-03-14T07:24:22;14.63;;;3.60;;
32705;SDS011;19094;50.972;3.538;2023-03-14T07:26:48;19.10;;;2.85;;
32705;SDS011;19094;50.972;3.538;2023-03-14T07:29:13;20.60;;;3.42;;
32705;SDS011;19094;50.972;3.538;2023-03-14T07:31:39;13.25;;;3.88;;
32705;SDS011;19094;50.972;3.538;2023-03-14T07:34:05;14.23;;;2.60;;
32705;SDS011;19094;50.972;3.538;2023-03-14T07:36:31;15.95;;;3.40;;
32705;SDS011;19094;50.972;3.538;2023-03-14T07:38:57;17.48;;;2.78;;
32705;SDS011;19094;50.972;3.538;2023-03-14T07:41:22;13.25;;;2.70;;
32705;SDS011;19094;50.972;3.538;2023-03-14T07:43:48;10.88;;;1.88;;
32705;SDS011;19094;50.972;3.538;2023-03-14T07:46:14;12.48;;;2.47;;
32705;SDS011;19094;50.972;3.538;2023-03-14T07:48:40;9.63;;;2.40;;
32705;SDS011;19094;50.972;3.538;2023-03-14T07:51:06;13.10;;;2.78;;
32705;SDS011;19094;50.972;3.538;2023-03-14T07:53:32;12.88;;;2.80;;
32705;SDS011;19094;50.972;3.538;2023-03-14T07:55:58;10.77;;;2.45;;
32705;SDS011;19094;50.972;3.538;2023-03-14T07:58:23;23.02;;;2.90;;
32705;SDS011;19094;50.972;3.538;2023-03-14T08:00:50;19.35;;;2.85;;
32705;SDS011;19094;50.972;3.538;2023-03-14T08:03:16;12.52;;;2.40;;
32705;SDS011;19094;50.972;3.538;2023-03-14T08:05:43;19.48;;;2.95;;
32705;SDS011;19094;50.972;3.538;2023-03-14T08:08:09;15.38;;;2.75;;
32705;SDS011;19094;50.972;3.538;2023-03-14T08:10:34;12.88;;;2.80;;
32705;SDS011;19094;50.972;3.538;2023-03-14T08:13:00;15.30;;;2.63;;
32705;SDS011;19094;50.972;3.538;2023-03-14T08:15:27;13.07;;;2.53;;
32705;SDS011;19094;50.972;3.538;2023-03-14T08:17:54;22.73;;;2.90;;
32705;SDS011;19094;50.972;3.538;2023-03-14T08:20:21;7.53;;;2.10;;
32705;SDS011;19094;50.972;3.538;2023-03-14T08:22:48;14.02;;;2.83;;
32705;SDS011;19094;50.972;3.538;2023-03-14T08:25:14;8.63;;;2.38;;
32705;SDS011;19094;50.972;3.538;2023-03-14T08:27:41;15.70;;;2.47;;
32705;SDS011;19094;50.972;3.538;2023-03-14T08:30:09;12.98;;;2.10;;
32705;SDS011;19094;50.972;3.538;2023-03-14T08:32:37;15.00;;;2.60;;
32705;SDS011;19094;50.972;3.538;2023-03-14T08:35:03;12.18;;;2.40;;
32705;SDS011;19094;50.972;3.538;2023-03-14T08:37:31;14.13;;;2.20;;
32705;SDS011;19094;50.972;3.538;2023-03-14T08:39:57;13.55;;;2.42;;
32705;SDS011;19094;50.972;3.538;2023-03-14T08:42:23;10.20;;;2.20;;
32705;SDS011;19094;50.972;3.538;2023-03-14T08:44:50;8.90;;;2.35;;
32705;SDS011;19094;50.972;3.538;2023-03-14T08:47:16;9.70;;;1.85;;
32705;SDS011;19094;50.972;3.538;2023-03-14T08:49:42;13.93;;;2.00;;
32705;SDS011;19094;50.972;3.538;2023-03-14T08:52:08;9.20;;;2.03;;
32705;SDS011;19094;50.972;3.538;2023-03-14T08:54:34;8.60;;;1.70;;
32705;SDS011;19094;50.972;3.538;2023-03-14T08:56:59;6.68;;;2.15;;
32705;SDS011;19094;50.972;3.538;2023-03-14T08:59:25;9.50;;;2.15;;
32705;SDS011;19094;50.972;3.538;2023-03-14T09:01:51;10.75;;;2.30;;
32705;SDS011;19094;50.972;3.538;2023-03-14T09:04:17;14.80;;;1.90;;
32705;SDS011;19094;50.972;3.538;2023-03-14T09:06:42;15.90;;;2.42;;
32705;SDS011;19094;50.972;3.538;2023-03-14T09:09:08;8.38;;;1.35;;
32705;SDS011;19094;50.972;3.538;2023-03-14T09:11:34;11.60;;;1.63;;
32705;SDS011;19094;50.972;3.538;2023-03-14T09:13:59;15.15;;;2.33;;
32705;SDS011;19094;50.972;3.538;2023-03-14T09:16:25;15.77;;;2.72;;
32705;SDS011;19094;50.972;3.538;2023-03-14T09:18:51;7.25;;;1.67;;
32705;SDS011;19094;50.972;3.538;2023-03-14T09:21:22;16.20;;;2.30;;
32705;SDS011;19094;50.972;3.538;2023-03-14T09:23:48;11.88;;;1.60;;
32705;SDS011;19094;50.972;3.538;2023-03-14T09:26:14;8.90;;;1.60;;
32705;SDS011;19094;50.972;3.538;2023-03-14T09:28:40;8.40;;;1.50;;
32705;SDS011;19094;50.972;3.538;2023-03-14T09:31:10;13.43;;;2.50;;
32705;SDS011;19094;50.972;3.538;2023-03-14T09:33:36;14.88;;;2.13;;
32705;SDS011;19094;50.972;3.538;2023-03-14T09:36:03;9.15;;;2.00;;
32705;SDS011;19094;50.972;3.538;2023-03-14T09:38:30;8.43;;;1.80;;
32705;SDS011;19094;50.972;3.538;2023-03-14T09:40:58;10.52;;;2.42;;
32705;SDS011;19094;50.972;3.538;2023-03-14T09:43:25;13.40;;;1.90;;
32705;SDS011;19094;50.972;3.538;2023-03-14T09:45:54;7.63;;;2.08;;
32705;SDS011;19094;50.972;3.538;2023-03-14T09:48:26;14.07;;;1.65;;
32705;SDS011;19094;50.972;3.538;2023-03-14T09:50:54;12.43;;;1.90;;
32705;SDS011;19094;50.972;3.538;2023-03-14T09:53:24;11.85;;;1.80;;
32705;SDS011;19094;50.972;3.538;2023-03-14T09:55:52;14.13;;;2.08;;
32705;SDS011;19094;50.972;3.538;2023-03-14T09:58:20;10.65;;;2.55;;
32705;SDS011;19094;50.972;3.538;2023-03-14T10:00:49;11.90;;;2.15;;
32705;SDS011;19094;50.972;3.538;2023-03-14T10:03:29;9.02;;;1.70;;
32705;SDS011;19094;50.972;3.538;2023-03-14T10:05:58;13.10;;;2.15;;
32705;SDS011;19094;50.972;3.538;2023-03-14T10:08:24;7.18;;;1.73;;
32705;SDS011;19094;50.972;3.538;2023-03-14T10:10:50;9.25;;;1.60;;
32705;SDS011;19094;50.972;3.538;2023-03-14T10:13:17;7.78;;;1.77;;
32705;SDS011;19094;50.972;3.538;2023-03-14T10:15:55;6.85;;;1.42;;
32705;SDS011;19094;50.972;3.538;2023-03-14T10:18:22;7.35;;;1.33;;
32705;SDS011;19094;50.972;3.538;2023-03-14T10:20:49;7.72;;;1.85;;
32705;SDS011;19094;50.972;3.538;2023-03-14T10:23:27;5.85;;;1.20;;
32705;SDS011;19094;50.972;3.538;2023-03-14T10:26:06;7.60;;;1.23;;
32705;SDS011;19094;50.972;3.538;2023-03-14T10:28:42;11.27;;;1.42;;
32705;SDS011;19094;50.972;3.538;2023-03-14T10:31:13;7.68;;;1.95;;
32705;SDS011;19094;50.972;3.538;2023-03-14T10:33:40;8.80;;;2.25;;
32705;SDS011;19094;50.972;3.538;2023-03-14T10:36:15;4.97;;;1.30;;
32705;SDS011;19094;50.972;3.538;2023-03-14T10:38:45;7.00;;;1.38;;
32705;SDS011;19094;50.972;3.538;2023-03-14T10:41:19;7.30;;;1.33;;
32705;SDS011;19094;50.972;3.538;2023-03-14T10:43:51;8.48;;;2.03;;
32705;SDS011;19094;50.972;3.538;2023-03-14T10:46:21;9.95;;;1.83;;
32705;SDS011;19094;50.972;3.538;2023-03-14T10:48:50;11.25;;;2.08;;
32705;SDS011;19094;50.972;3.538;2023-03-14T10:51:25;9.60;;;1.80;;
32705;SDS011;19094;50.972;3.538;2023-03-14T10:53:59;2.67;;;0.90;;
32705;SDS011;19094;50.972;3.538;2023-03-14T10:56:33;3.25;;;1.17;;
32705;SDS011;19094;50.972;3.538;2023-03-14T10:59:00;6.43;;;1.10;;
32705;SDS011;19094;50.972;3.538;2023-03-14T11:07:17;6.95;;;1.75;;
32705;SDS011;19094;50.972;3.538;2023-03-14T11:09:49;6.63;;;1.48;;
32705;SDS011;19094;50.972;3.538;2023-03-14T11:15:02;8.32;;;1.55;;
32705;SDS011;19094;50.972;3.538;2023-03-14T11:18:09;5.90;;;1.55;;
32705;SDS011;19094;50.972;3.538;2023-03-14T11:28:45;7.75;;;3.15;;
32705;SDS011;19094;50.972;3.538;2023-03-14T11:36:48;6.65;;;1.33;;
32705;SDS011;19094;50.972;3.538;2023-03-14T11:39:19;4.97;;;2.05;;
32705;SDS011;19094;50.972;3.538;2023-03-14T11:41:46;5.80;;;1.70;;
32705;SDS011;19094;50.972;3.538;2023-03-14T11:46:55;8.55;;;2.50;;
32705;SDS011;19094;50.972;3.538;2023-03-14T11:49:42;7.03;;;1.42;;
32705;SDS011;19094;50.972;3.538;2023-03-14T11:55:11;5.20;;;1.50;;
32705;SDS011;19094;50.972;3.538;2023-03-14T11:57:51;4.82;;;1.67;;
32705;SDS011;19094;50.972;3.538;2023-03-14T12:00:22;6.90;;;1.50;;
32705;SDS011;19094;50.972;3.538;2023-03-14T12:08:16;6.85;;;1.90;;
32705;SDS011;19094;50.972;3.538;2023-03-14T12:10:58;6.25;;;1.75;;
32705;SDS011;19094;50.972;3.538;2023-03-14T12:13:36;4.80;;;1.67;;
32705;SDS011;19094;50.972;3.538;2023-03-14T12:16:04;4.78;;;1.67;;
32705;SDS011;19094;50.972;3.538;2023-03-14T12:18:54;3.05;;;1.10;;
32705;SDS011;19094;50.972;3.538;2023-03-14T12:21:20;7.45;;;1.75;;
32705;SDS011;19094;50.972;3.538;2023-03-14T12:24:14;8.13;;;1.58;;
32705;SDS011;19094;50.972;3.538;2023-03-14T12:26:52;17.20;;;3.80;;
32705;SDS011;19094;50.972;3.538;2023-03-14T12:29:19;31.92;;;7.75;;
32705;SDS011;19094;50.972;3.538;2023-03-14T12:31:46;20.80;;;3.22;;
32705;SDS011;19094;50.972;3.538;2023-03-14T12:34:43;17.42;;;2.53;;
32705;SDS011;19094;50.972;3.538;2023-03-14T12:40:39;20.02;;;4.88;;
32705;SDS011;19094;50.972;3.538;2023-03-14T12:43:25;24.17;;;4.13;;
32705;SDS011;19094;50.972;3.538;2023-03-14T13:04:35;22.02;;;3.75;;
32705;SDS011;19094;50.972;3.538;2023-03-14T13:07:10;11.90;;;2.60;;
32705;SDS011;19094;50.972;3.538;2023-03-14T13:10:00;11.70;;;2.92;;
32705;SDS011;19094;50.972;3.538;2023-03-14T13:15:19;16.70;;;2.13;;
32705;SDS011;19094;50.972;3.538;2023-03-14T13:18:02;11.13;;;1.92;;
32705;SDS011;19094;50.972;3.538;2023-03-14T13:20:35;13.52;;;2.92;;
32705;SDS011;19094;50.972;3.538;2023-03-14T13:23:25;15.00;;;2.38;;
32705;SDS011;19094;50.972;3.538;2023-03-14T13:25:53;16.25;;;2.60;;
32705;SDS011;19094;50.972;3.538;2023-03-14T13:28:20;14.13;;;2.05;;
32705;SDS011;19094;50.972;3.538;2023-03-14T13:30:47;16.63;;;3.10;;
32705;SDS011;19094;50.972;3.538;2023-03-14T13:33:15;15.68;;;2.35;;
32705;SDS011;19094;50.972;3.538;2023-03-14T13:35:48;22.25;;;2.45;;
32705;SDS011;19094;50.972;3.538;2023-03-14T13:38:24;12.60;;;2.47;;
32705;SDS011;19094;50.972;3.538;2023-03-14T13:40:53;15.75;;;2.53;;
32705;SDS011;19094;50.972;3.538;2023-03-14T13:45:56;18.50;;;2.00;;
32705;SDS011;19094;50.972;3.538;2023-03-14T13:48:26;19.27;;;2.87;;
32705;SDS011;19094;50.972;3.538;2023-03-14T13:51:01;19.23;;;2.67;;
32705;SDS011;19094;50.972;3.538;2023-03-14T13:53:33;9.20;;;2.30;;
32705;SDS011;19094;50.972;3.538;2023-03-14T13:56:27;14.57;;;3.00;;
32705;SDS011;19094;50.972;3.538;2023-03-14T13:58:54;15.35;;;2.25;;
32705;SDS011;19094;50.972;3.538;2023-03-14T14:04:02;15.07;;;2.28;;
32705;SDS011;19094;50.972;3.538;2023-03-14T14:09:04;11.68;;;1.55;;
32705;SDS011;19094;50.972;3.538;2023-03-14T14:14:31;8.25;;;1.52;;
32705;SDS011;19094;50.972;3.538;2023-03-14T14:17:05;8.18;;;1.30;;
32705;SDS011;19094;50.972;3.538;2023-03-14T14:19:33;8.45;;;2.17;;
32705;SDS011;19094;50.972;3.538;2023-03-14T14:22:00;6.35;;;1.10;;
32705;SDS011;19094;50.972;3.538;2023-03-14T14:24:31;5.03;;;1.08;;
32705;SDS011;19094;50.972;3.538;2023-03-14T14:26:59;2.58;;;0.60;;
32705;SDS011;19094;50.972;3.538;2023-03-14T14:29:41;7.20;;;0.85;;
32705;SDS011;19094;50.972;3.538;2023-03-14T14:34:45;2.60;;;0.70;;
32705;SDS011;19094;50.972;3.538;2023-03-14T14:39:46;6.25;;;0.90;;
32705;SDS011;19094;50.972;3.538;2023-03-14T14:42:17;5.47;;;0.90;;
32705;SDS011;19094;50.972;3.538;2023-03-14T14:44:49;3.17;;;1.10;;
32705;SDS011;19094;50.972;3.538;2023-03-14T14:47:18;5.38;;;1.10;;
32705;SDS011;19094;50.972;3.538;2023-03-14T14:49:49;6.70;;;1.25;;
32705;SDS011;19094;50.972;3.538;2023-03-14T14:52:18;3.40;;;0.95;;
32705;SDS011;19094;50.972;3.538;2023-03-14T14:54:58;4.22;;;0.63;;
32705;SDS011;19094;50.972;3.538;2023-03-14T14:57:26;7.30;;;1.08;;
32705;SDS011;19094;50.972;3.538;2023-03-14T15:00:20;6.50;;;1.20;;
32705;SDS011;19094;50.972;3.538;2023-03-14T15:02:48;9.07;;;1.23;;
32705;SDS011;19094;50.972;3.538;2023-03-14T15:05:21;9.23;;;1.75;;
32705;SDS011;19094;50.972;3.538;2023-03-14T15:07:48;9.80;;;1.40;;
32705;SDS011;19094;50.972;3.538;2023-03-14T15:10:15;7.78;;;1.60;;
32705;SDS011;19094;50.972;3.538;2023-03-14T15:12:43;10.15;;;3.63;;
32705;SDS011;19094;50.972;3.538;2023-03-14T15:15:09;4.97;;;1.40;;
32705;SDS011;19094;50.972;3.538;2023-03-14T15:17:36;8.52;;;1.15;;
32705;SDS011;19094;50.972;3.538;2023-03-14T15:20:03;9.65;;;1.60;;
32705;SDS011;19094;50.972;3.538;2023-03-14T15:22:30;5.22;;;1.30;;
32705;SDS011;19094;50.972;3.538;2023-03-14T15:24:56;5.78;;;1.58;;
32705;SDS011;19094;50.972;3.538;2023-03-14T15:27:21;6.68;;;2.10;;
32705;SDS011;19094;50.972;3.538;2023-03-14T15:29:48;6.00;;;1.50;;
32705;SDS011;19094;50.972;3.538;2023-03-14T15:32:14;8.02;;;1.42;;
32705;SDS011;19094;50.972;3.538;2023-03-14T15:34:41;3.92;;;1.65;;
32705;SDS011;19094;50.972;3.538;2023-03-14T15:37:15;6.57;;;2.00;;
32705;SDS011;19094;50.972;3.538;2023-03-14T15:39:42;5.65;;;1.00;;
32705;SDS011;19094;50.972;3.538;2023-03-14T15:42:08;4.00;;;1.42;;
32705;SDS011;19094;50.972;3.538;2023-03-14T15:44:34;11.88;;;2.15;;
32705;SDS011;19094;50.972;3.538;2023-03-14T15:47:00;6.82;;;1.40;;
32705;SDS011;19094;50.972;3.538;2023-03-14T15:49:27;4.40;;;1.58;;
32705;SDS011;19094;50.972;3.538;2023-03-14T15:51:53;10.52;;;1.60;;
32705;SDS011;19094;50.972;3.538;2023-03-14T15:54:18;6.45;;;1.33;;
32705;SDS011;19094;50.972;3.538;2023-03-14T15:56:44;8.68;;;2.08;;
32705;SDS011;19094;50.972;3.538;2023-03-14T15:59:10;12.38;;;2.03;;
32705;SDS011;19094;50.972;3.538;2023-03-14T16:01:36;9.65;;;2.17;;
32705;SDS011;19094;50.972;3.538;2023-03-14T16:04:01;11.30;;;2.70;;
32705;SDS011;19094;50.972;3.538;2023-03-14T16:06:28;13.18;;;3.00;;
32705;SDS011;19094;50.972;3.538;2023-03-14T16:08:55;11.20;;;2.92;;